createdAt,value
2022-09-18T00:01:51.451Z,65.27
2022-09-18T00:04:20.891Z,65.53
2022-09-18T00:06:52.891Z,65.58
2022-09-18T00:09:22.331Z,65.11
2022-09-18T00:11:51.795Z,65.23
2022-09-18T00:14:22.524Z,65.01
2022-09-18T00:16:52.083Z,65.11
2022-09-18T00:19:21.599Z,64.78
2022-09-18T00:21:53.783Z,64.74
2022-09-18T00:24:24.273Z,64.99
2022-09-18T00:26:53.786Z,64.98
2022-09-18T00:29:23.208Z,65.00
2022-09-18T00:31:52.671Z,64.94
2022-09-18T00:34:22.510Z,64.55
2022-09-18T00:36:54.485Z,64.70
2022-09-18T00:39:23.953Z,64.67
2022-09-18T00:41:53.587Z,64.36
2022-09-18T00:44:33.106Z,64.22
2022-09-18T00:47:06.818Z,63.94
2022-09-18T00:49:36.497Z,64.58
2022-09-18T00:52:08.927Z,64.44
2022-09-18T00:54:40.020Z,64.09
2022-09-18T00:57:10.732Z,64.47
2022-09-18T00:59:40.589Z,63.56
2022-09-18T01:02:10.021Z,64.27
2022-09-18T01:04:39.509Z,64.80
2022-09-18T01:07:14.947Z,64.41
2022-09-18T01:09:48.346Z,64.62
2022-09-18T01:12:22.826Z,63.89
2022-09-18T01:14:54.695Z,63.83
2022-09-18T01:17:28.651Z,63.85
2022-09-18T01:20:23.343Z,64.44
2022-09-18T01:23:05.610Z,64.75
2022-09-18T01:25:37.554Z,64.49
2022-09-18T01:28:19.674Z,64.11
2022-09-18T01:30:49.353Z,63.61
2022-09-18T01:33:21.164Z,63.52
2022-09-18T01:35:51.317Z,63.62
2022-09-18T01:38:22.347Z,63.38
2022-09-18T01:40:52.619Z,63.68
2022-09-18T01:43:24.625Z,63.67
2022-09-18T01:45:55.494Z,62.74
2022-09-18T01:48:29.310Z,62.76
2022-09-18T01:51:01.127Z,61.88
2022-09-18T01:53:32.482Z,62.92
2022-09-18T01:56:04.443Z,62.94
2022-09-18T01:58:36.694Z,63.14
2022-09-18T02:01:07.899Z,63.25
2022-09-18T02:03:38.810Z,62.82
2022-09-18T02:06:10.430Z,62.06
2022-09-18T02:08:41.506Z,62.42
2022-09-18T02:11:12.294Z,61.89
2022-09-18T02:13:45.291Z,61.66
2022-09-18T02:16:17.926Z,61.76
2022-09-18T02:18:48.575Z,62.18
2022-09-18T02:21:21.200Z,62.04
2022-09-18T02:23:50.607Z,61.93
2022-09-18T02:26:20.176Z,62.51
2022-09-18T02:28:52.184Z,62.51
2022-09-18T02:31:21.651Z,61.93
2022-09-18T02:33:53.441Z,62.24
2022-09-18T02:36:41.757Z,62.58
2022-09-18T02:39:17.541Z,62.13
2022-09-18T02:41:49.269Z,61.57
2022-09-18T02:44:22.488Z,61.95
2022-09-18T02:46:58.276Z,61.72
2022-09-18T02:49:35.301Z,61.83
2022-09-18T02:52:06.625Z,61.71
2022-09-18T02:54:38.845Z,61.08
2022-09-18T02:57:10.829Z,62.00
2022-09-18T02:59:43.305Z,62.25
2022-09-18T03:02:12.835Z,62.28
2022-09-18T03:04:42.307Z,62.21
2022-09-18T03:07:14.615Z,62.55
2022-09-18T03:09:44.037Z,62.33
2022-09-18T03:12:13.466Z,61.77
2022-09-18T03:14:45.448Z,61.20
2022-09-18T03:17:14.959Z,61.41
2022-09-18T03:19:44.746Z,60.72
2022-09-18T03:22:14.383Z,61.61
2022-09-18T03:24:43.762Z,62.10
2022-09-18T03:27:13.202Z,61.35
2022-09-18T03:29:45.227Z,61.61
2022-09-18T03:32:14.695Z,62.13
2022-09-18T03:34:44.093Z,61.87
2022-09-18T03:37:13.498Z,61.52
2022-09-18T03:39:42.901Z,61.46
2022-09-18T03:42:12.314Z,61.44
2022-09-18T03:44:41.705Z,61.37
2022-09-18T03:47:13.695Z,61.28
2022-09-18T03:49:43.089Z,62.08
2022-09-18T03:52:12.547Z,62.26
2022-09-18T03:54:41.939Z,62.31
2022-09-18T03:57:11.349Z,62.47
2022-09-18T03:59:40.754Z,61.83
2022-09-18T04:02:12.840Z,62.12
2022-09-18T04:04:42.269Z,62.15
2022-09-18T04:07:11.720Z,61.82
2022-09-18T04:09:41.149Z,61.79
2022-09-18T04:12:10.769Z,62.01
2022-09-18T04:14:40.167Z,62.84
2022-09-18T04:17:09.575Z,63.03
2022-09-18T04:19:41.590Z,63.26
2022-09-18T04:22:10.983Z,63.04
2022-09-18T04:24:40.387Z,63.88
2022-09-18T04:27:09.937Z,64.13
2022-09-18T04:29:39.360Z,63.87
2022-09-18T04:32:09.671Z,64.77
2022-09-18T04:34:41.662Z,64.91
2022-09-18T04:37:11.095Z,64.98
2022-09-18T04:39:40.504Z,65.39
2022-09-18T04:42:10.073Z,65.28
2022-09-18T04:44:39.465Z,65.56
2022-09-18T04:47:08.990Z,65.42
2022-09-18T04:49:41.108Z,66.16
2022-09-18T04:52:10.725Z,66.01
2022-09-18T04:54:40.321Z,66.08
2022-09-18T04:57:09.729Z,66.32
2022-09-18T04:59:39.163Z,66.16
2022-09-18T05:02:08.667Z,65.83
2022-09-18T05:04:40.726Z,66.18
2022-09-18T05:07:10.141Z,65.79
2022-09-18T05:09:39.554Z,65.86
2022-09-18T05:12:09.943Z,65.92
2022-09-18T05:14:39.333Z,65.66
2022-09-18T05:17:08.717Z,66.07
2022-09-18T05:19:40.717Z,65.89
2022-09-18T05:22:10.135Z,65.83
2022-09-18T05:24:39.553Z,66.33
2022-09-18T05:27:08.955Z,65.79
2022-09-18T05:30:08.876Z,65.39
2022-09-18T05:32:38.310Z,65.80
2022-09-18T05:35:11.007Z,65.73
2022-09-18T05:37:40.434Z,65.02
2022-09-18T05:40:10.687Z,64.96
2022-09-18T05:42:40.457Z,65.04
2022-09-18T05:45:10.756Z,65.28
2022-09-18T05:47:40.161Z,64.96
2022-09-18T05:50:12.756Z,65.05
2022-09-18T05:52:42.235Z,64.84
2022-09-18T05:55:12.177Z,65.24
2022-09-18T05:57:41.602Z,65.60
2022-09-18T06:00:12.679Z,65.96
2022-09-18T06:02:42.171Z,67.43
2022-09-18T06:05:14.278Z,67.78
2022-09-18T06:07:43.691Z,68.12
2022-09-18T06:10:13.082Z,68.28
2022-09-18T06:12:42.720Z,68.01
2022-09-18T06:15:12.741Z,68.20
2022-09-18T06:17:42.201Z,67.80
2022-09-18T06:20:14.923Z,67.36
2022-09-18T06:22:44.306Z,67.33
2022-09-18T06:25:13.720Z,67.22
2022-09-18T06:27:43.119Z,66.91
2022-09-18T06:30:13.774Z,67.27
2022-09-18T06:32:43.167Z,67.36
2022-09-18T06:35:15.219Z,67.38
2022-09-18T06:37:44.617Z,67.63
2022-09-18T06:40:14.100Z,67.85
2022-09-18T06:42:46.079Z,67.48
2022-09-18T06:45:15.689Z,67.88
2022-09-18T06:47:45.159Z,68.16
2022-09-18T06:50:17.693Z,67.70
2022-09-18T06:52:47.094Z,68.02
2022-09-18T06:55:16.683Z,67.77
2022-09-18T06:57:46.083Z,67.37
2022-09-18T07:00:15.897Z,66.59
2022-09-18T07:02:45.294Z,66.62
2022-09-18T07:05:17.435Z,65.90
2022-09-18T07:07:48.379Z,65.75
2022-09-18T07:10:17.934Z,65.30
2022-09-18T07:12:48.949Z,65.72
2022-09-18T07:15:18.920Z,66.05
2022-09-18T07:17:48.453Z,66.54
2022-09-18T07:20:20.559Z,66.38
2022-09-18T07:22:55.001Z,66.06
2022-09-18T07:25:24.623Z,66.31
2022-09-18T07:27:54.032Z,65.83
2022-09-18T07:30:23.663Z,66.17
2022-09-18T07:32:53.120Z,64.66
2022-09-18T07:35:25.123Z,63.29
2022-09-18T07:37:54.527Z,64.04
2022-09-18T07:40:24.041Z,63.56
2022-09-18T07:42:53.957Z,62.59
2022-09-18T07:45:23.383Z,63.12
2022-09-18T07:47:52.813Z,63.14
2022-09-18T07:50:24.889Z,61.74
2022-09-18T07:52:54.406Z,61.97
2022-09-18T07:55:24.365Z,60.88
2022-09-18T07:57:57.696Z,60.38
2022-09-18T08:00:27.192Z,58.70
2022-09-18T08:03:04.066Z,59.51
2022-09-18T08:05:36.166Z,60.04
2022-09-18T08:08:06.303Z,59.96
2022-09-18T08:10:35.958Z,58.74
2022-09-18T08:13:05.435Z,58.05
2022-09-18T08:15:35.172Z,58.50
2022-09-18T08:18:04.571Z,57.64
2022-09-18T08:20:36.574Z,57.84
2022-09-18T08:23:06.460Z,57.34
2022-09-18T08:25:37.285Z,58.58
2022-09-18T08:28:07.489Z,58.36
2022-09-18T08:30:37.108Z,58.50
2022-09-18T08:33:07.416Z,57.99
2022-09-18T08:35:39.416Z,58.60
2022-09-18T08:38:11.247Z,58.30
2022-09-18T08:40:55.776Z,57.40
2022-09-18T08:43:35.959Z,58.44
2022-09-18T08:46:07.395Z,57.60
2022-09-18T08:48:38.275Z,56.38
2022-09-18T08:51:20.616Z,56.89
2022-09-18T08:53:51.405Z,55.94
2022-09-18T08:56:23.882Z,55.54
2022-09-18T08:58:55.245Z,55.59
2022-09-18T09:01:24.711Z,55.74
2022-09-18T09:03:56.909Z,55.38
2022-09-18T09:06:45.980Z,54.73
2022-09-18T09:09:28.502Z,54.72
2022-09-18T09:12:02.313Z,55.36
2022-09-18T09:14:56.182Z,55.56
2022-09-18T09:17:33.547Z,55.26
2022-09-18T09:20:06.397Z,54.89
2022-09-18T09:22:40.887Z,55.62
2022-09-18T09:25:16.775Z,54.95
2022-09-18T09:27:47.321Z,54.79
2022-09-18T09:30:18.441Z,55.31
2022-09-18T09:32:49.628Z,55.36
2022-09-18T09:35:22.910Z,54.44
2022-09-18T09:37:55.480Z,55.39
2022-09-18T09:40:28.290Z,54.80
2022-09-18T09:42:58.933Z,55.43
2022-09-18T09:45:30.689Z,54.77
2022-09-18T09:48:04.722Z,54.65
2022-09-18T09:50:41.101Z,54.58
2022-09-18T09:53:15.063Z,54.66
2022-09-18T09:55:49.482Z,54.71
2022-09-18T09:58:24.063Z,54.02
2022-09-18T10:00:56.021Z,54.83
2022-09-18T10:03:38.321Z,54.29
2022-09-18T10:06:13.254Z,54.39
2022-09-18T10:08:47.189Z,54.34
2022-09-18T10:11:17.168Z,53.25
2022-09-18T10:13:48.520Z,52.15
2022-09-18T10:16:19.732Z,52.83
2022-09-18T10:18:50.018Z,53.28
2022-09-18T10:21:21.159Z,53.26
2022-09-18T10:23:53.427Z,53.80
2022-09-18T10:26:24.551Z,52.77
2022-09-18T10:28:53.784Z,52.54
2022-09-18T10:31:23.266Z,52.02
2022-09-18T10:33:53.509Z,52.43
2022-09-18T10:36:26.032Z,52.53
2022-09-18T10:38:58.018Z,52.03
2022-09-18T10:41:43.346Z,51.71
2022-09-18T10:44:23.241Z,51.64
2022-09-18T10:46:54.670Z,51.61
2022-09-18T10:49:26.590Z,53.09
2022-09-18T10:52:32.052Z,52.55
2022-09-18T10:55:12.875Z,51.88
2022-09-18T10:57:43.823Z,52.18
2022-09-18T11:00:38.934Z,52.66
2022-09-18T11:03:24.325Z,52.43
2022-09-18T11:05:55.491Z,52.49
2022-09-18T11:08:26.536Z,53.45
2022-09-18T11:11:02.927Z,52.85
2022-09-18T11:13:32.541Z,53.08
2022-09-18T11:16:02.731Z,53.73
2022-09-18T11:18:33.146Z,53.81
2022-09-18T11:21:04.480Z,54.09
2022-09-18T11:23:34.629Z,53.49
2022-09-18T11:26:19.873Z,53.74
2022-09-18T11:29:03.591Z,53.31
2022-09-18T11:31:44.804Z,53.48
2022-09-18T11:34:19.569Z,53.10
2022-09-18T11:36:50.711Z,53.03
2022-09-18T11:39:24.536Z,52.72
2022-09-18T11:41:56.868Z,52.09
2022-09-18T11:44:28.541Z,52.42
2022-09-18T11:47:33.787Z,52.48
2022-09-18T11:50:11.982Z,51.61
2022-09-18T11:52:42.915Z,51.06
2022-09-18T11:55:18.149Z,50.78
2022-09-18T11:57:51.749Z,50.65
2022-09-18T12:00:22.657Z,50.65
2022-09-18T12:02:59.485Z,50.49
2022-09-18T12:05:30.815Z,49.50
2022-09-18T12:08:03.793Z,49.46
2022-09-18T12:10:50.106Z,49.24
2022-09-18T12:13:40.516Z,49.78
2022-09-18T12:16:15.310Z,50.26
2022-09-18T12:18:51.436Z,49.85
2022-09-18T12:21:23.027Z,49.66
2022-09-18T12:23:52.568Z,48.91
2022-09-18T12:26:23.542Z,47.73
2022-09-18T12:29:06.118Z,47.04
2022-09-18T12:31:38.876Z,48.44
2022-09-18T12:34:11.151Z,48.20
2022-09-18T12:36:50.202Z,48.27
2022-09-18T12:39:33.287Z,46.92
2022-09-18T12:42:12.046Z,46.89
2022-09-18T12:45:22.929Z,46.50
2022-09-18T12:48:03.451Z,46.95
2022-09-18T12:50:48.477Z,46.68
2022-09-18T12:53:37.874Z,46.32
2022-09-18T12:56:15.455Z,46.78
2022-09-18T12:58:57.913Z,46.05
2022-09-18T13:01:30.532Z,46.79
2022-09-18T13:04:05.412Z,46.40
2022-09-18T13:06:38.047Z,46.91
2022-09-18T13:09:13.208Z,46.54
2022-09-18T13:11:43.954Z,46.46
2022-09-18T13:14:15.430Z,45.47
2022-09-18T13:16:50.385Z,46.41
2022-09-18T13:19:24.283Z,45.99
2022-09-18T13:21:53.929Z,46.27
2022-09-18T13:24:25.290Z,46.14
2022-09-18T13:26:54.672Z,46.72
2022-09-18T13:29:51.669Z,46.77
2022-09-18T13:32:21.971Z,47.12
2022-09-18T13:34:55.640Z,46.62
2022-09-18T13:37:26.144Z,47.03
2022-09-18T13:40:09.736Z,46.21
2022-09-18T13:42:41.854Z,45.98
2022-09-18T13:45:16.476Z,45.86
2022-09-18T13:48:02.196Z,44.79
2022-09-18T13:50:34.446Z,45.39
2022-09-18T13:53:05.074Z,45.79
2022-09-18T13:55:50.613Z,45.68
2022-09-18T13:58:38.979Z,45.16
2022-09-18T14:01:09.041Z,45.32
2022-09-18T14:03:42.406Z,45.33
2022-09-18T14:06:41.910Z,45.63
2022-09-18T14:09:47.650Z,45.67
2022-09-18T14:12:18.080Z,45.09
2022-09-18T14:14:58.187Z,45.67
2022-09-18T14:17:28.205Z,45.52
2022-09-18T14:20:01.525Z,45.22
2022-09-18T14:22:34.514Z,45.09
2022-09-18T14:25:07.367Z,44.91
2022-09-18T14:27:42.278Z,44.69
2022-09-18T14:30:19.900Z,45.41
2022-09-18T14:33:03.438Z,45.29
2022-09-18T14:35:42.053Z,44.85
2022-09-18T14:38:26.527Z,45.42
2022-09-18T14:41:00.918Z,46.11
2022-09-18T14:43:30.350Z,46.01
2022-09-18T14:45:59.896Z,45.83
2022-09-18T14:48:30.758Z,45.54
2022-09-18T14:51:04.446Z,45.97
2022-09-18T14:53:33.925Z,46.01
2022-09-18T14:56:07.402Z,46.34
2022-09-18T14:58:38.120Z,46.07
2022-09-18T15:01:08.568Z,45.95
2022-09-18T15:03:39.769Z,45.25
2022-09-18T15:06:12.082Z,45.32
2022-09-18T15:08:41.507Z,45.62
2022-09-18T15:11:14.359Z,45.08
2022-09-18T15:13:43.780Z,45.41
2022-09-18T15:16:20.348Z,45.75
2022-09-18T15:18:52.535Z,45.22
2022-09-18T15:21:24.328Z,45.31
2022-09-18T15:23:53.893Z,44.83
2022-09-18T15:26:26.899Z,45.06
2022-09-18T15:28:56.341Z,45.61
2022-09-18T15:31:25.955Z,45.29
2022-09-18T15:33:57.429Z,45.69
2022-09-18T15:36:28.981Z,45.22
2022-09-18T15:38:58.492Z,45.87
2022-09-18T15:41:41.837Z,45.08
2022-09-18T15:44:46.942Z,45.54
2022-09-18T15:47:32.772Z,45.90
2022-09-18T15:50:02.579Z,46.49
2022-09-18T15:52:38.854Z,45.61
2022-09-18T15:55:19.623Z,47.11
2022-09-18T15:57:53.537Z,46.50
2022-09-18T16:00:23.690Z,47.24
2022-09-18T16:02:53.914Z,46.94
2022-09-18T16:05:23.378Z,46.77
2022-09-18T16:07:56.069Z,46.58
2022-09-18T16:10:48.900Z,46.05
2022-09-18T16:13:33.949Z,46.79
2022-09-18T16:16:17.629Z,47.40
2022-09-18T16:18:56.046Z,47.71
2022-09-18T16:21:27.053Z,48.41
2022-09-18T16:23:58.853Z,48.51
2022-09-18T16:26:31.189Z,49.13
2022-09-18T16:29:04.365Z,48.99
2022-09-18T16:31:34.858Z,48.65
2022-09-18T16:34:05.342Z,49.67
2022-09-18T16:36:35.706Z,50.26
2022-09-18T16:39:07.836Z,50.99
2022-09-18T16:41:37.427Z,50.76
2022-09-18T16:44:10.983Z,51.81
2022-09-18T16:46:41.759Z,52.72
2022-09-18T16:49:11.531Z,53.63
2022-09-18T16:51:40.949Z,53.47
2022-09-18T16:54:10.344Z,54.52
2022-09-18T16:56:42.788Z,55.08
2022-09-18T16:59:14.769Z,55.58
2022-09-18T17:02:02.892Z,55.97
2022-09-18T17:04:33.899Z,57.23
2022-09-18T17:07:03.318Z,58.18
2022-09-18T17:09:32.905Z,58.74
2022-09-18T17:12:02.364Z,59.17
2022-09-18T17:14:34.641Z,59.37
2022-09-18T17:17:06.063Z,59.89
2022-09-18T17:19:35.866Z,60.93
2022-09-18T17:22:05.306Z,61.12
2022-09-18T17:24:34.710Z,62.09
2022-09-18T17:27:04.143Z,62.30
2022-09-18T17:29:36.189Z,62.46
2022-09-18T17:32:06.389Z,62.33
2022-09-18T17:34:35.836Z,63.14
2022-09-18T17:37:05.273Z,63.86
2022-09-18T17:39:34.670Z,64.14
2022-09-18T17:42:04.086Z,64.34
2022-09-18T17:44:37.148Z,64.66
2022-09-18T17:47:06.646Z,65.44
2022-09-18T17:49:36.164Z,65.54
2022-09-18T17:52:06.150Z,65.90
2022-09-18T17:54:36.095Z,66.48
2022-09-18T17:57:11.400Z,66.72
2022-09-18T17:59:45.291Z,67.24
2022-09-18T18:02:15.483Z,68.10
2022-09-18T18:04:44.935Z,68.50
2022-09-18T18:07:14.363Z,68.87
2022-09-18T18:09:43.777Z,68.75
2022-09-18T18:12:13.548Z,68.70
2022-09-18T18:14:45.521Z,69.65
2022-09-18T18:17:15.661Z,69.60
2022-09-18T18:19:45.470Z,70.45
2022-09-18T18:22:14.876Z,70.21
2022-09-18T18:24:44.565Z,71.09
2022-09-18T18:27:13.981Z,71.81
2022-09-18T18:29:45.963Z,72.48
2022-09-18T18:32:15.394Z,73.14
2022-09-18T18:34:44.796Z,73.61
2022-09-18T18:37:14.687Z,74.37
2022-09-18T18:39:44.217Z,74.99
2022-09-18T18:42:13.721Z,75.10
2022-09-18T18:44:45.978Z,76.21
2022-09-18T18:47:17.607Z,76.89
2022-09-18T18:49:46.995Z,77.35
2022-09-18T18:52:16.409Z,78.39
2022-09-18T18:54:45.924Z,78.34
2022-09-18T18:57:15.351Z,78.47
2022-09-18T18:59:47.380Z,79.28
2022-09-18T19:02:17.365Z,79.17
2022-09-18T19:04:46.877Z,79.80
2022-09-18T19:07:16.281Z,79.76
2022-09-18T19:09:45.684Z,79.74
2022-09-18T19:12:17.075Z,80.14
2022-09-18T19:14:50.087Z,79.11
2022-09-18T19:17:19.550Z,79.74
2022-09-18T19:19:49.042Z,79.72
2022-09-18T19:22:18.983Z,80.15
2022-09-18T19:24:48.419Z,80.74
2022-09-18T19:27:18.984Z,80.41
2022-09-18T19:29:51.349Z,80.90
2022-09-18T19:32:21.085Z,79.74
2022-09-18T19:34:50.494Z,80.47
2022-09-18T19:37:19.974Z,80.34
2022-09-18T19:39:50.307Z,79.69
2022-09-18T19:42:19.881Z,79.97
2022-09-18T19:44:52.697Z,80.34
2022-09-18T19:47:23.413Z,80.90
2022-09-18T19:49:53.080Z,79.46
2022-09-18T19:52:23.702Z,78.34
2022-09-18T19:54:54.449Z,79.16
2022-09-18T19:57:24.200Z,78.28
2022-09-18T19:59:57.270Z,79.35
2022-09-18T20:02:26.891Z,78.89
2022-09-18T20:04:56.854Z,79.93
2022-09-18T20:07:26.264Z,80.18
2022-09-18T20:09:55.701Z,79.81
2022-09-18T20:12:25.134Z,79.69
2022-09-18T20:14:57.185Z,80.52
2022-09-18T20:17:27.019Z,79.38
2022-09-18T20:19:56.557Z,79.94
2022-09-18T20:22:26.210Z,80.27
2022-09-18T20:24:55.671Z,80.13
2022-09-18T20:27:26.078Z,80.59
2022-09-18T20:29:58.074Z,79.51
2022-09-18T20:32:27.514Z,80.40
2022-09-18T20:34:57.801Z,79.16
2022-09-18T20:37:32.898Z,78.57
2022-09-18T20:40:04.004Z,79.60
2022-09-18T20:42:34.566Z,80.09
2022-09-18T20:45:07.434Z,81.00
2022-09-18T20:47:37.762Z,80.36
2022-09-18T20:50:10.014Z,81.13
2022-09-18T20:52:42.938Z,81.27
2022-09-18T20:55:13.370Z,80.69
2022-09-18T20:57:44.466Z,80.63
2022-09-18T21:00:17.649Z,79.78
2022-09-18T21:02:49.348Z,79.44
2022-09-18T21:05:18.947Z,79.07
2022-09-18T21:07:48.383Z,79.28
2022-09-18T21:10:17.809Z,79.47
2022-09-18T21:12:47.519Z,79.56
2022-09-18T21:15:19.755Z,79.94
2022-09-18T21:17:52.213Z,79.95
2022-09-18T21:20:21.709Z,80.15
2022-09-18T21:23:03.668Z,80.22
2022-09-18T21:25:33.345Z,80.13
2022-09-18T21:28:05.977Z,80.80
2022-09-18T21:30:38.065Z,80.64
2022-09-18T21:33:11.136Z,79.98
2022-09-18T21:35:41.085Z,80.19
2022-09-18T21:38:12.964Z,79.78
2022-09-18T21:40:43.562Z,80.34
2022-09-18T21:43:15.618Z,79.54
2022-09-18T21:45:48.199Z,79.63
2022-09-18T21:48:17.990Z,79.98
2022-09-18T21:50:47.475Z,80.20
2022-09-18T21:53:16.969Z,79.77
2022-09-18T21:55:47.809Z,80.01
2022-09-18T21:58:20.926Z,79.37
2022-09-18T22:00:53.122Z,79.26
2022-09-18T22:03:22.700Z,80.14
2022-09-18T22:05:53.008Z,80.11
2022-09-18T22:08:22.566Z,79.08
2022-09-18T22:10:52.073Z,78.71
2022-09-18T22:13:23.059Z,79.10
2022-09-18T22:15:58.734Z,79.02
2022-09-18T22:18:28.334Z,79.16
2022-09-18T22:20:58.088Z,79.30
2022-09-18T22:23:27.502Z,79.25
2022-09-18T22:26:01.254Z,79.54
2022-09-18T22:28:31.224Z,79.31
2022-09-18T22:31:05.197Z,78.83
2022-09-18T22:33:34.682Z,78.80
2022-09-18T22:36:05.834Z,78.52
2022-09-18T22:38:35.205Z,78.48
2022-09-18T22:41:05.638Z,77.67
2022-09-18T22:43:35.385Z,77.27
2022-09-18T22:46:08.725Z,76.57
2022-09-18T22:48:38.334Z,76.92
2022-09-18T22:51:09.385Z,76.98
2022-09-18T22:53:41.990Z,76.48
2022-09-18T22:56:15.509Z,76.72
2022-09-18T22:58:45.040Z,76.54
2022-09-18T23:01:18.803Z,77.08
2022-09-18T23:03:49.214Z,77.06
2022-09-18T23:06:21.619Z,76.71
2022-09-18T23:08:54.274Z,77.01
2022-09-18T23:11:24.558Z,77.14
2022-09-18T23:13:55.442Z,77.10
2022-09-18T23:16:28.623Z,77.57
2022-09-18T23:18:59.068Z,77.66
2022-09-18T23:21:29.136Z,77.22
2022-09-18T23:23:58.645Z,77.01
2022-09-18T23:26:29.418Z,76.91
2022-09-18T23:29:00.210Z,77.12
2022-09-18T23:31:33.492Z,77.14
2022-09-18T23:34:08.943Z,77.46
2022-09-18T23:36:39.285Z,77.54
2022-09-18T23:39:09.495Z,78.04
2022-09-18T23:41:38.961Z,77.75
2022-09-18T23:44:09.316Z,77.73
2022-09-18T23:46:41.346Z,76.79
2022-09-18T23:49:12.266Z,77.56
2022-09-18T23:51:43.126Z,77.49
2022-09-18T23:54:17.190Z,77.59
2022-09-18T23:56:46.700Z,78.02
2022-09-18T23:59:18.640Z,78.05
